Asterion — FICK — position and weather

sailwx.info

Track history (hours):
 
Tides and Currents Weather Stations Pressure Air Temp Water Temp Dewpoint Dewpoint Depression Visibility Wind Speed Wind Dir Waves Ship Positions

Asterion

Last reported at 2017-Jan-22 07:20 UTC. Time now 2017-Jan-22 18:25 UTC.
Position N 38°04' W 000°05'.

Length 184 m; draft 7 m.

Type: Ship. MMSI: 226000000.

Date/timePositionNaut miles runAvg speedWind from/ knotsBaromVisibWave heightAir tempDewpointWater temp
2017-Jan-22 07:20N 38°04' W 000°05'6 7.9
2017-Jan-22 06:33N 37°59' W 000°09'9 8.9
2017-Jan-22 05:31N 37°52' W 000°17'8 8.2
2017-Jan-22 04:33N 37°45' W 000°21'8 8.4
2017-Jan-22 03:33N 37°38' W 000°28'9 8.7
2017-Jan-22 02:33N 37°31' W 000°34'9 9.3
2017-Jan-22 01:33N 37°25' W 000°43'10 9.7
2017-Jan-22 00:33N 37°19' W 000°52'10 9.7
2017-Jan-21 23:33N 37°12' W 001°01'21212.2
2017-Jan-21 06:11N 36°01' W 005°09'914.1
2017-Jan-21 05:33N 35°60' W 005°20'2813.8
2017-Jan-21 03:32N 35°54' W 005°54'85857.2
2017-Jan-20 12:31N 48°53' E 002°15'3 0.6
2017-Jan-20 07:09N 48°55' E 002°19'143557.2
2017-Jan-19 06:03N 28°54' W 014°29'2013.2
2017-Jan-19 04:32N 28°39' W 014°45'1313.1
2017-Jan-19 03:33N 28°31' W 014°56'1313.2
2017-Jan-19 02:33N 28°21' W 015°07'1313.0
2017-Jan-19 01:33N 28°12' W 015°17'8 7.7
2017-Jan-19 00:33N 28°08' W 015°25'0 0.2
2017-Jan-18 23:22N 28°08' W 015°25'0 0.0
2017-Jan-18 22:28N 28°08' W 015°25'0 0.0
2017-Jan-18 21:28N 28°08' W 015°25'0 0.0
2017-Jan-18 20:31N 28°08' W 015°25'0 0.0
2017-Jan-18 19:31N 28°08' W 015°25'0 0.0
2017-Jan-18 18:31N 28°08' W 015°25'0 0.0
2017-Jan-18 17:28N 28°08' W 015°25'0 0.0
2017-Jan-18 16:31N 28°08' W 015°25'0 0.0
2017-Jan-18 15:31N 28°08' W 015°25'0 0.0
2017-Jan-18 14:22N 28°08' W 015°25'0 0.0
2017-Jan-18 12:25N 28°08' W 015°25'0 0.0
2017-Jan-18 11:25N 28°08' W 015°25'14951523.6
2017-Jan-18 10:26N 48°52' E 002°14'149582.3
2017-Jan-17 16:16N 28°08' W 015°25'0 0.0
2017-Jan-17 15:28N 28°08' W 015°25'0 0.0
2017-Jan-17 14:31N 28°08' W 015°25'0 0.0
2017-Jan-17 13:16N 28°08' W 015°25'0 0.0
2017-Jan-17 12:31N 28°08' W 015°25'0 0.0
2017-Jan-17 11:31N 28°08' W 015°25'0 0.0
2017-Jan-17 10:31N 28°08' W 015°25'0 0.0
2017-Jan-17 09:22N 28°08' W 015°25'0 0.0
2017-Jan-17 08:25N 28°08' W 015°25'0 0.0
2017-Jan-17 07:25N 28°08' W 015°25'0 0.0
2017-Jan-17 06:28N 28°08' W 015°25'0 0.0
2017-Jan-17 05:28N 28°08' W 015°25'0 0.0
2017-Jan-17 04:28N 28°08' W 015°25'0 0.0
2017-Jan-17 03:31N 28°08' W 015°25'0 0.0
2017-Jan-17 02:31N 28°08' W 015°25'0 0.0
2017-Jan-17 01:31N 28°08' W 015°25'0 0.0
2017-Jan-17 00:31N 28°08' W 015°25'0 0.0
2017-Jan-16 23:31N 28°08' W 015°25'0 0.0
2017-Jan-16 22:31N 28°08' W 015°25'0 0.0
2017-Jan-16 21:31N 28°08' W 015°25'0 0.0
2017-Jan-16 20:22N 28°08' W 015°25'0 0.0
2017-Jan-16 19:22N 28°08' W 015°25'0 0.0
2017-Jan-16 18:25N 28°08' W 015°25'0 0.0
2017-Jan-16 17:25N 28°08' W 015°25'0 0.0
2017-Jan-16 16:22N 28°08' W 015°25'0 0.0
2017-Jan-16 15:28N 28°08' W 015°25'0 0.0
2017-Jan-16 14:28N 28°08' W 015°25'0 0.0
2017-Jan-16 13:10N 28°08' W 015°25'0 0.0
2017-Jan-16 12:31N 28°08' W 015°25'0 0.0
2017-Jan-16 11:31N 28°08' W 015°25'0 0.0
2017-Jan-16 10:31N 28°08' W 015°25'0 0.0
2017-Jan-16 09:31N 28°08' W 015°25'0 0.0
2017-Jan-16 08:31N 28°08' W 015°25'0 0.0
2017-Jan-16 07:31N 28°08' W 015°25'0 0.0
2017-Jan-16 06:22N 28°08' W 015°25'0 0.0
2017-Jan-16 05:22N 28°08' W 015°25'0 0.0
2017-Jan-16 04:25N 28°08' W 015°25'0 0.0
2017-Jan-16 03:25N 28°08' W 015°25'0 0.0
2017-Jan-16 02:28N 28°08' W 015°25'0 0.0
2017-Jan-16 01:28N 28°08' W 015°25'0 0.0
2017-Jan-16 00:28N 28°08' W 015°25'0 0.0
2017-Jan-15 23:28N 28°08' W 015°25'0 0.0
2017-Jan-15 22:31N 28°08' W 015°25'0 0.0
2017-Jan-15 21:31N 28°08' W 015°25'0 0.0
2017-Jan-15 20:31N 28°08' W 015°25'0 0.0
2017-Jan-15 19:31N 28°08' W 015°25'0 0.0
2017-Jan-15 18:19N 28°08' W 015°25'0 0.0
2017-Jan-15 17:31N 28°08' W 015°25'0 0.0
2017-Jan-15 16:22N 28°08' W 015°25'0 0.0
2017-Jan-15 15:22N 28°08' W 015°25'0 0.0
2017-Jan-15 14:25N 28°08' W 015°25'0 0.0
2017-Jan-15 13:22N 28°08' W 015°25'0 0.0
2017-Jan-15 12:33N 28°08' W 015°25'2 1.7
2017-Jan-15 11:33N 28°08' W 015°23'0 0.4
2017-Jan-15 10:27N 28°08' W 015°24'0 0.0
2017-Jan-15 09:27N 28°08' W 015°24'0 0.3
2017-Jan-15 08:33N 28°08' W 015°23'6 5.9
2017-Jan-15 07:34N 28°08' W 015°17'5 4.5
2017-Jan-15 06:22N 28°11' W 015°12'1 1.4
2017-Jan-15 05:26N 28°13' W 015°12'1 1.2
2017-Jan-15 04:26N 28°14' W 015°12'1 1.0
2017-Jan-15 03:26N 28°15' W 015°12'1 0.9
2017-Jan-15 02:29N 28°16' W 015°12'1 1.0
2017-Jan-15 01:29N 28°17' W 015°12'1 1.1
2017-Jan-15 00:28N 28°18' W 015°11'1 1.1
2017-Jan-14 23:31N 28°19' W 015°10'1 1.2
2017-Jan-14 22:32N 28°20' W 015°10'3 3.1
2017-Jan-14 21:33N 28°18' W 015°12'1010.4
2017-Jan-14 20:33N 28°10' W 015°20'4 3.7
2017-Jan-14 19:31N 28°08' W 015°24'0 0.0
2017-Jan-14 18:31N 28°08' W 015°24'0 0.0
2017-Jan-14 17:31N 28°08' W 015°24'0 0.0
2017-Jan-14 16:22N 28°08' W 015°24'0 0.0
2017-Jan-14 15:22N 28°08' W 015°24'0 0.0
2017-Jan-14 14:25N 28°08' W 015°24'0 0.0
2017-Jan-14 13:25N 28°08' W 015°24'0 0.0
2017-Jan-14 12:28N 28°08' W 015°24'0 0.0
2017-Jan-14 11:28N 28°08' W 015°24'0 0.1
2017-Jan-14 10:28N 28°08' W 015°24'3 3.8
2017-Jan-14 09:33N 28°10' W 015°20'1313.0
2017-Jan-14 08:33N 28°20' W 015°11'1312.9
2017-Jan-14 07:33N 28°31' W 015°03'1312.7
2017-Jan-14 06:31N 28°43' W 014°57'1413.1
2017-Jan-14 05:27N 28°55' W 014°50'143865.3
2017-Jan-13 07:25N 48°53' E 002°15'89042.6
2017-Jan-12 10:32N 37°03' W 009°59'2412.3
2017-Jan-12 08:33N 37°22' W 009°41'1212.1
2017-Jan-12 07:33N 37°32' W 009°32'  
Track history (hours):
 
Tides and Currents Weather Stations Pressure Air Temp Water Temp Dewpoint Dewpoint Depression Visibility Wind Speed Wind Dir Waves Ship Positions

Asterion

Last reported at 2017-Jan-22 07:20 UTC. Time now 2017-Jan-22 18:25 UTC.
Position N 38°04' W 000°05'.

Length 184 m; draft 7 m.

Type: Ship. MMSI: 226000000.

Date/timePositionNaut miles runAvg speedWind from/ knotsBaromVisibWave heightAir tempDewpointWater temp
2017-Jan-22 07:20N 38°04' W 000°05'6 7.9
2017-Jan-22 06:33N 37°59' W 000°09'9 8.9
2017-Jan-22 05:31N 37°52' W 000°17'8 8.2
2017-Jan-22 04:33N 37°45' W 000°21'8 8.4
2017-Jan-22 03:33N 37°38' W 000°28'9 8.7
2017-Jan-22 02:33N 37°31' W 000°34'9 9.3
2017-Jan-22 01:33N 37°25' W 000°43'10 9.7
2017-Jan-22 00:33N 37°19' W 000°52'10 9.7
2017-Jan-21 23:33N 37°12' W 001°01'21212.2
2017-Jan-21 06:11N 36°01' W 005°09'914.1
2017-Jan-21 05:33N 35°60' W 005°20'2813.8
2017-Jan-21 03:32N 35°54' W 005°54'85857.2
2017-Jan-20 12:31N 48°53' E 002°15'3 0.6
2017-Jan-20 07:09N 48°55' E 002°19'143557.2
2017-Jan-19 06:03N 28°54' W 014°29'2013.2
2017-Jan-19 04:32N 28°39' W 014°45'1313.1
2017-Jan-19 03:33N 28°31' W 014°56'1313.2
2017-Jan-19 02:33N 28°21' W 015°07'1313.0
2017-Jan-19 01:33N 28°12' W 015°17'8 7.7
2017-Jan-19 00:33N 28°08' W 015°25'0 0.2
2017-Jan-18 23:22N 28°08' W 015°25'0 0.0
2017-Jan-18 22:28N 28°08' W 015°25'0 0.0
2017-Jan-18 21:28N 28°08' W 015°25'0 0.0
2017-Jan-18 20:31N 28°08' W 015°25'0 0.0
2017-Jan-18 19:31N 28°08' W 015°25'0 0.0
2017-Jan-18 18:31N 28°08' W 015°25'0 0.0
2017-Jan-18 17:28N 28°08' W 015°25'0 0.0
2017-Jan-18 16:31N 28°08' W 015°25'0 0.0
2017-Jan-18 15:31N 28°08' W 015°25'0 0.0
2017-Jan-18 14:22N 28°08' W 015°25'0 0.0
2017-Jan-18 12:25N 28°08' W 015°25'0 0.0
2017-Jan-18 11:25N 28°08' W 015°25'14951523.6
2017-Jan-18 10:26N 48°52' E 002°14'149582.3
2017-Jan-17 16:16N 28°08' W 015°25'0 0.0
2017-Jan-17 15:28N 28°08' W 015°25'0 0.0
2017-Jan-17 14:31N 28°08' W 015°25'0 0.0
2017-Jan-17 13:16N 28°08' W 015°25'0 0.0
2017-Jan-17 12:31N 28°08' W 015°25'0 0.0
2017-Jan-17 11:31N 28°08' W 015°25'0 0.0
2017-Jan-17 10:31N 28°08' W 015°25'0 0.0
2017-Jan-17 09:22N 28°08' W 015°25'0 0.0
2017-Jan-17 08:25N 28°08' W 015°25'0 0.0
2017-Jan-17 07:25N 28°08' W 015°25'0 0.0
2017-Jan-17 06:28N 28°08' W 015°25'0 0.0
2017-Jan-17 05:28N 28°08' W 015°25'0 0.0
2017-Jan-17 04:28N 28°08' W 015°25'0 0.0
2017-Jan-17 03:31N 28°08' W 015°25'0 0.0
2017-Jan-17 02:31N 28°08' W 015°25'0 0.0
2017-Jan-17 01:31N 28°08' W 015°25'0 0.0
2017-Jan-17 00:31N 28°08' W 015°25'0 0.0
2017-Jan-16 23:31N 28°08' W 015°25'0 0.0
2017-Jan-16 22:31N 28°08' W 015°25'0 0.0
2017-Jan-16 21:31N 28°08' W 015°25'0 0.0
2017-Jan-16 20:22N 28°08' W 015°25'0 0.0
2017-Jan-16 19:22N 28°08' W 015°25'0 0.0
2017-Jan-16 18:25N 28°08' W 015°25'0 0.0
2017-Jan-16 17:25N 28°08' W 015°25'0 0.0
2017-Jan-16 16:22N 28°08' W 015°25'0 0.0
2017-Jan-16 15:28N 28°08' W 015°25'0 0.0
2017-Jan-16 14:28N 28°08' W 015°25'0 0.0
2017-Jan-16 13:10N 28°08' W 015°25'0 0.0
2017-Jan-16 12:31N 28°08' W 015°25'0 0.0
2017-Jan-16 11:31N 28°08' W 015°25'0 0.0
2017-Jan-16 10:31N 28°08' W 015°25'0 0.0
2017-Jan-16 09:31N 28°08' W 015°25'0 0.0
2017-Jan-16 08:31N 28°08' W 015°25'0 0.0
2017-Jan-16 07:31N 28°08' W 015°25'0 0.0
2017-Jan-16 06:22N 28°08' W 015°25'0 0.0
2017-Jan-16 05:22N 28°08' W 015°25'0 0.0
2017-Jan-16 04:25N 28°08' W 015°25'0 0.0
2017-Jan-16 03:25N 28°08' W 015°25'0 0.0
2017-Jan-16 02:28N 28°08' W 015°25'0 0.0
2017-Jan-16 01:28N 28°08' W 015°25'0 0.0
2017-Jan-16 00:28N 28°08' W 015°25'0 0.0
2017-Jan-15 23:28N 28°08' W 015°25'0 0.0
2017-Jan-15 22:31N 28°08' W 015°25'0 0.0
2017-Jan-15 21:31N 28°08' W 015°25'0 0.0
2017-Jan-15 20:31N 28°08' W 015°25'0 0.0
2017-Jan-15 19:31N 28°08' W 015°25'0 0.0
2017-Jan-15 18:19N 28°08' W 015°25'0 0.0
2017-Jan-15 17:31N 28°08' W 015°25'0 0.0
2017-Jan-15 16:22N 28°08' W 015°25'0 0.0
2017-Jan-15 15:22N 28°08' W 015°25'0 0.0
2017-Jan-15 14:25N 28°08' W 015°25'0 0.0
2017-Jan-15 13:22N 28°08' W 015°25'0 0.0
2017-Jan-15 12:33N 28°08' W 015°25'2 1.7
2017-Jan-15 11:33N 28°08' W 015°23'0 0.4
2017-Jan-15 10:27N 28°08' W 015°24'0 0.0
2017-Jan-15 09:27N 28°08' W 015°24'0 0.3
2017-Jan-15 08:33N 28°08' W 015°23'6 5.9
2017-Jan-15 07:34N 28°08' W 015°17'5 4.5
2017-Jan-15 06:22N 28°11' W 015°12'1 1.4
2017-Jan-15 05:26N 28°13' W 015°12'1 1.2
2017-Jan-15 04:26N 28°14' W 015°12'1 1.0
2017-Jan-15 03:26N 28°15' W 015°12'1 0.9
2017-Jan-15 02:29N 28°16' W 015°12'1 1.0
2017-Jan-15 01:29N 28°17' W 015°12'1 1.1
2017-Jan-15 00:28N 28°18' W 015°11'1 1.1
2017-Jan-14 23:31N 28°19' W 015°10'1 1.2
2017-Jan-14 22:32N 28°20' W 015°10'3 3.1
2017-Jan-14 21:33N 28°18' W 015°12'1010.4
2017-Jan-14 20:33N 28°10' W 015°20'4 3.7
2017-Jan-14 19:31N 28°08' W 015°24'0 0.0
2017-Jan-14 18:31N 28°08' W 015°24'0 0.0
2017-Jan-14 17:31N 28°08' W 015°24'0 0.0
2017-Jan-14 16:22N 28°08' W 015°24'0 0.0
2017-Jan-14 15:22N 28°08' W 015°24'0 0.0
2017-Jan-14 14:25N 28°08' W 015°24'0 0.0
2017-Jan-14 13:25N 28°08' W 015°24'0 0.0
2017-Jan-14 12:28N 28°08' W 015°24'0 0.0
2017-Jan-14 11:28N 28°08' W 015°24'0 0.1
2017-Jan-14 10:28N 28°08' W 015°24'3 3.8
2017-Jan-14 09:33N 28°10' W 015°20'1313.0
2017-Jan-14 08:33N 28°20' W 015°11'1312.9
2017-Jan-14 07:33N 28°31' W 015°03'1312.7
2017-Jan-14 06:31N 28°43' W 014°57'1413.1
2017-Jan-14 05:27N 28°55' W 014°50'143865.3
2017-Jan-13 07:25N 48°53' E 002°15'89042.6
2017-Jan-12 10:32N 37°03' W 009°59'2412.3
2017-Jan-12 08:33N 37°22' W 009°41'1212.1
2017-Jan-12 07:33N 37°32' W 009°32'  

Dump ship's entire track history